createdAt,value
2018-12-14T12:37:19.982Z,32.592773
2018-12-14T12:37:26.240Z,32.495117
2018-12-14T12:37:33.119Z,32.696533
2018-12-14T12:37:39.084Z,32.696533
2018-12-14T12:37:45.346Z,32.592773
2018-12-14T12:37:52.519Z,32.696533
2018-12-14T12:37:58.724Z,33.093262
2018-12-14T12:38:05.060Z,33.093262
2018-12-14T12:38:12.061Z,33.496094
2018-12-14T12:38:17.662Z,33.496094
2018-12-14T12:38:23.665Z,33.294678
2018-12-14T12:38:29.809Z,33.392334
2018-12-14T12:38:38.624Z,33.093262
2018-12-14T12:38:45.081Z,32.696533
2018-12-14T12:38:50.779Z,32.592773
2018-12-14T12:38:56.922Z,32.397461
2018-12-14T12:39:02.886Z,32.495117
2018-12-14T12:39:10.343Z,32.696533
2018-12-14T12:39:16.266Z,32.696533
2018-12-14T12:39:23.386Z,32.696533
2018-12-14T12:39:29.526Z,32.592773
2018-12-14T12:39:36.625Z,32.495117
2018-12-14T12:39:43.262Z,32.293701
2018-12-14T12:39:49.386Z,32.397461
2018-12-14T12:39:55.329Z,32.397461
2018-12-14T12:40:01.041Z,32.495117
2018-12-14T12:40:08.039Z,32.495117
2018-12-14T12:40:14.523Z,32.495117
2018-12-14T12:40:20.223Z,32.592773
2018-12-14T12:40:26.643Z,32.495117
2018-12-14T12:40:32.164Z,32.495117
2018-12-14T12:40:38.000Z,32.397461
2018-12-14T12:40:44.327Z,32.397461
2018-12-14T12:40:51.207Z,32.495117
2018-12-14T12:40:57.785Z,32.495117
2018-12-14T12:41:05.685Z,32.397461
2018-12-14T12:41:13.205Z,32.397461
2018-12-14T12:41:19.667Z,32.293701
2018-12-14T12:41:27.084Z,32.397461
2018-12-14T12:41:37.211Z,32.397461
2018-12-14T12:41:42.964Z,32.580566
2018-12-14T12:41:50.749Z,32.476807
2018-12-14T12:41:57.919Z,32.37915
2018-12-14T12:42:07.626Z,32.476807
2018-12-14T12:42:15.302Z,32.37915
2018-12-14T12:42:21.525Z,32.281494
2018-12-14T12:42:29.780Z,32.281494
2018-12-14T12:42:35.543Z,32.37915
2018-12-14T12:42:41.721Z,32.281494
2018-12-14T12:42:47.820Z,32.281494
2018-12-14T12:42:53.622Z,32.281494
2018-12-14T12:42:59.681Z,32.476807
2018-12-14T12:43:06.065Z,32.476807
2018-12-14T12:43:12.469Z,32.476807
2018-12-14T12:43:20.106Z,32.37915
2018-12-14T12:43:26.440Z,32.281494
2018-12-14T12:43:32.301Z,32.281494
2018-12-14T12:43:47.577Z,32.37915
2018-12-14T14:28:53.245Z,32.757568
2018-12-14T14:28:59.767Z,32.556152
2018-12-14T14:29:06.931Z,32.556152
2018-12-14T14:29:13.966Z,32.556152
2018-12-14T14:29:21.106Z,32.556152
2018-12-14T14:29:28.728Z,32.458496
2018-12-14T14:29:35.126Z,38.470459
2018-12-14T14:29:41.727Z,46.862793
2018-12-14T14:29:47.506Z,40.148926
2018-12-14T14:29:53.687Z,35.345459
2018-12-14T14:30:00.480Z,33.428955
2018-12-14T14:30:08.601Z,32.427979
2018-12-14T14:30:14.948Z,32.324219
2018-12-14T14:30:21.603Z,32.025146
2018-12-14T14:30:28.989Z,32.025146
2018-12-14T14:30:35.703Z,32.025146
2018-12-14T14:30:41.988Z,31.92749
2018-12-14T14:30:48.017Z,31.939697
2018-12-14T14:30:55.222Z,32.043457
2018-12-14T14:31:03.146Z,32.141113
2018-12-14T14:31:09.226Z,32.141113
2018-12-14T14:31:15.103Z,32.043457
2018-12-14T14:31:21.366Z,32.043457
2018-12-14T14:31:28.671Z,32.043457
2018-12-14T14:31:34.408Z,32.043457
2018-12-14T14:31:40.566Z,32.141113
2018-12-14T14:31:46.258Z,32.23877
2018-12-14T14:31:51.958Z,32.342529
2018-12-14T14:31:57.883Z,32.342529
2018-12-14T14:32:03.807Z,32.458496
2018-12-14T14:32:09.584Z,32.458496
2018-12-14T14:32:15.423Z,32.458496
2018-12-14T14:32:21.163Z,32.458496
2018-12-14T14:32:27.585Z,32.354736
2018-12-14T14:32:33.309Z,32.354736
2018-12-14T14:32:39.044Z,32.354736
2018-12-14T14:32:45.112Z,32.458496
2018-12-14T14:32:51.021Z,32.458496
2018-12-14T14:32:56.608Z,32.556152
2018-12-14T14:33:02.082Z,32.653809
2018-12-14T14:33:07.938Z,32.556152
2018-12-14T14:33:13.620Z,32.556152
2018-12-14T14:33:19.765Z,32.556152
2018-12-14T14:33:25.324Z,32.653809
2018-12-14T14:33:30.945Z,32.653809
2018-12-14T14:33:36.605Z,32.556152
2018-12-14T14:33:42.165Z,32.556152
2018-12-14T14:33:47.966Z,32.653809
2018-12-14T14:33:54.285Z,32.556152
2018-12-14T14:34:00.226Z,32.653809
2018-12-14T14:34:06.449Z,32.653809
2018-12-14T14:34:12.827Z,32.757568
2018-12-14T14:34:19.126Z,32.653809
2018-12-14T14:34:24.973Z,32.653809
2018-12-14T14:34:32.224Z,32.653809
2018-12-14T14:34:37.910Z,32.855225
2018-12-14T14:34:43.624Z,32.958984
2018-12-14T14:34:49.423Z,32.757568
2018-12-14T14:34:55.985Z,32.556152
2018-12-14T14:35:01.758Z,32.556152
2018-12-14T14:35:07.341Z,32.769775
2018-12-14T14:35:13.522Z,32.769775
2018-12-14T14:35:19.220Z,32.855225
